sensor_id;sensor_type;location;lat;lon;timestamp;pressure;altitude;pressure_sealevel;temperature;humidity
65013;BME280;51715;39.432;-77.518;2022-12-24T00:01:52;98564.10;;;-14.24;29.85
65013;BME280;51715;39.432;-77.518;2022-12-24T00:04:20;98567.46;;;-14.06;30.03
65013;BME280;51715;39.432;-77.518;2022-12-24T00:06:48;98575.18;;;-14.42;31.45
65013;BME280;51715;39.432;-77.518;2022-12-24T00:09:17;98569.60;;;-14.35;30.88
65013;BME280;51715;39.432;-77.518;2022-12-24T00:11:46;98575.97;;;-14.73;31.61
65013;BME280;51715;39.432;-77.518;2022-12-24T00:14:15;98567.37;;;-14.21;31.00
65013;BME280;51715;39.432;-77.518;2022-12-24T00:16:44;98572.57;;;-13.88;31.32
65013;BME280;51715;39.432;-77.518;2022-12-24T00:19:12;98575.03;;;-14.47;30.66
65013;BME280;51715;39.432;-77.518;2022-12-24T00:21:41;98572.29;;;-13.95;30.46
65013;BME280;51715;39.432;-77.518;2022-12-24T00:24:10;98565.90;;;-14.19;31.19
65013;BME280;51715;39.432;-77.518;2022-12-24T00:26:38;98554.46;;;-14.46;30.88
65013;BME280;51715;39.432;-77.518;2022-12-24T00:29:07;98542.46;;;-14.38;31.26
65013;BME280;51715;39.432;-77.518;2022-12-24T00:31:36;98541.55;;;-14.15;31.05
65013;BME280;51715;39.432;-77.518;2022-12-24T00:34:05;98534.44;;;-14.15;30.26
65013;BME280;51715;39.432;-77.518;2022-12-24T00:36:33;98516.06;;;-13.88;30.24
65013;BME280;51715;39.432;-77.518;2022-12-24T00:39:01;98525.91;;;-14.97;31.27
65013;BME280;51715;39.432;-77.518;2022-12-24T00:41:30;98514.13;;;-15.02;31.79
65013;BME280;51715;39.432;-77.518;2022-12-24T00:44:03;98506.33;;;-14.88;32.33
65013;BME280;51715;39.432;-77.518;2022-12-24T00:46:32;98485.81;;;-14.62;31.45
65013;BME280;51715;39.432;-77.518;2022-12-24T00:49:01;98486.71;;;-15.31;31.71
65013;BME280;51715;39.432;-77.518;2022-12-24T00:51:30;98487.84;;;-15.58;31.99
65013;BME280;51715;39.432;-77.518;2022-12-24T00:53:59;98492.65;;;-15.86;32.70
65013;BME280;51715;39.432;-77.518;2022-12-24T00:56:27;98495.15;;;-15.52;31.81
65013;BME280;51715;39.432;-77.518;2022-12-24T00:58:55;98511.90;;;-15.29;31.09
65013;BME280;51715;39.432;-77.518;2022-12-24T01:01:24;98518.54;;;-14.97;31.29
65013;BME280;51715;39.432;-77.518;2022-12-24T01:03:54;98544.13;;;-14.06;30.86
65013;BME280;51715;39.432;-77.518;2022-12-24T01:06:23;98544.41;;;-14.50;30.49
65013;BME280;51715;39.432;-77.518;2022-12-24T01:08:51;98559.55;;;-14.86;31.54
65013;BME280;51715;39.432;-77.518;2022-12-24T01:11:20;98564.86;;;-15.22;30.67
65013;BME280;51715;39.432;-77.518;2022-12-24T01:13:48;98576.85;;;-15.58;31.15
65013;BME280;51715;39.432;-77.518;2022-12-24T01:16:19;98592.59;;;-15.07;31.58
65013;BME280;51715;39.432;-77.518;2022-12-24T01:18:48;98598.73;;;-15.33;31.84
65013;BME280;51715;39.432;-77.518;2022-12-24T01:21:16;98603.66;;;-15.49;32.22
65013;BME280;51715;39.432;-77.518;2022-12-24T01:23:45;98609.38;;;-15.32;31.29
65013;BME280;51715;39.432;-77.518;2022-12-24T01:26:14;98606.35;;;-14.91;30.41
65013;BME280;51715;39.432;-77.518;2022-12-24T01:28:43;98605.35;;;-14.73;31.43
65013;BME280;51715;39.432;-77.518;2022-12-24T01:31:13;98613.59;;;-15.24;31.29
65013;BME280;51715;39.432;-77.518;2022-12-24T01:33:43;98619.08;;;-15.38;31.88
65013;BME280;51715;39.432;-77.518;2022-12-24T01:36:12;98622.94;;;-15.53;31.92
65013;BME280;51715;39.432;-77.518;2022-12-24T01:38:41;98629.41;;;-14.81;30.66
65013;BME280;51715;39.432;-77.518;2022-12-24T01:41:15;98635.47;;;-15.07;31.09
65013;BME280;51715;39.432;-77.518;2022-12-24T01:43:44;98637.24;;;-14.23;30.59
65013;BME280;51715;39.432;-77.518;2022-12-24T01:46:15;98624.56;;;-15.21;30.29
65013;BME280;51715;39.432;-77.518;2022-12-24T01:48:48;98642.41;;;-14.28;30.47
65013;BME280;51715;39.432;-77.518;2022-12-24T01:51:26;98638.45;;;-14.69;29.65
65013;BME280;51715;39.432;-77.518;2022-12-24T01:53:58;98637.93;;;-15.03;30.54
65013;BME280;51715;39.432;-77.518;2022-12-24T01:56:30;98636.80;;;-14.51;29.93
65013;BME280;51715;39.432;-77.518;2022-12-24T01:59:03;98652.44;;;-15.90;31.57
65013;BME280;51715;39.432;-77.518;2022-12-24T02:01:32;98647.35;;;-15.56;31.08
65013;BME280;51715;39.432;-77.518;2022-12-24T02:04:07;98660.29;;;-14.47;29.98
65013;BME280;51715;39.432;-77.518;2022-12-24T02:06:39;98672.98;;;-15.01;30.52
65013;BME280;51715;39.432;-77.518;2022-12-24T02:09:08;98679.87;;;-15.20;31.02
65013;BME280;51715;39.432;-77.518;2022-12-24T02:11:39;98680.59;;;-13.93;30.01
65013;BME280;51715;39.432;-77.518;2022-12-24T02:14:08;98689.00;;;-14.47;30.02
65013;BME280;51715;39.432;-77.518;2022-12-24T02:16:42;98696.25;;;-13.88;29.64
65013;BME280;51715;39.432;-77.518;2022-12-24T02:19:30;98695.40;;;-13.64;29.27
65013;BME280;51715;39.432;-77.518;2022-12-24T02:22:05;98702.58;;;-13.82;29.49
65013;BME280;51715;39.432;-77.518;2022-12-24T02:24:59;98712.54;;;-13.53;28.96
65013;BME280;51715;39.432;-77.518;2022-12-24T02:27:38;98722.07;;;-14.16;29.30
65013;BME280;51715;39.432;-77.518;2022-12-24T02:30:14;98705.75;;;-14.41;29.28
65013;BME280;51715;39.432;-77.518;2022-12-24T02:33:00;98707.31;;;-14.81;30.76
65013;BME280;51715;39.432;-77.518;2022-12-24T02:35:41;98704.90;;;-14.28;30.69
65013;BME280;51715;39.432;-77.518;2022-12-24T02:38:16;98700.61;;;-14.40;30.78
65013;BME280;51715;39.432;-77.518;2022-12-24T02:40:50;98706.81;;;-14.58;31.07
65013;BME280;51715;39.432;-77.518;2022-12-24T02:43:22;98707.12;;;-13.96;30.94
65013;BME280;51715;39.432;-77.518;2022-12-24T02:45:55;98710.29;;;-14.60;31.36
65013;BME280;51715;39.432;-77.518;2022-12-24T02:48:25;98711.35;;;-13.89;31.62
65013;BME280;51715;39.432;-77.518;2022-12-24T02:51:00;98709.70;;;-13.54;30.66
65013;BME280;51715;39.432;-77.518;2022-12-24T02:53:28;98711.63;;;-13.71;30.50
65013;BME280;51715;39.432;-77.518;2022-12-24T02:56:13;98715.69;;;-14.73;31.28
65013;BME280;51715;39.432;-77.518;2022-12-24T02:58:57;98726.64;;;-14.19;30.52
65013;BME280;51715;39.432;-77.518;2022-12-24T03:01:37;98721.11;;;-14.48;30.90
65013;BME280;51715;39.432;-77.518;2022-12-24T03:04:22;98727.56;;;-14.59;31.06
65013;BME280;51715;39.432;-77.518;2022-12-24T03:06:59;98716.78;;;-15.47;31.59
65013;BME280;51715;39.432;-77.518;2022-12-24T03:09:36;98730.17;;;-15.82;31.23
65013;BME280;51715;39.432;-77.518;2022-12-24T03:12:11;98729.70;;;-14.92;30.95
65013;BME280;51715;39.432;-77.518;2022-12-24T03:14:44;98731.20;;;-14.71;30.81
65013;BME280;51715;39.432;-77.518;2022-12-24T03:17:16;98762.88;;;-15.11;31.30
65013;BME280;51715;39.432;-77.518;2022-12-24T03:19:46;98749.88;;;-14.68;31.45
65013;BME280;51715;39.432;-77.518;2022-12-24T03:22:15;98771.32;;;-14.46;30.27
65013;BME280;51715;39.432;-77.518;2022-12-24T03:24:45;98766.68;;;-14.63;30.48
65013;BME280;51715;39.432;-77.518;2022-12-24T03:27:13;98767.25;;;-14.91;30.15
65013;BME280;51715;39.432;-77.518;2022-12-24T03:29:43;98783.45;;;-14.42;30.40
65013;BME280;51715;39.432;-77.518;2022-12-24T03:32:13;98782.60;;;-14.55;30.21
65013;BME280;51715;39.432;-77.518;2022-12-24T03:34:41;98784.31;;;-14.69;30.56
65013;BME280;51715;39.432;-77.518;2022-12-24T03:37:10;98789.86;;;-15.03;30.97
65013;BME280;51715;39.432;-77.518;2022-12-24T03:39:39;98795.23;;;-15.94;31.90
65013;BME280;51715;39.432;-77.518;2022-12-24T03:42:07;98800.96;;;-15.65;31.75
65013;BME280;51715;39.432;-77.518;2022-12-24T03:44:36;98811.06;;;-16.39;32.76
65013;BME280;51715;39.432;-77.518;2022-12-24T03:47:04;98807.43;;;-16.15;32.41
65013;BME280;51715;39.432;-77.518;2022-12-24T03:49:33;98812.15;;;-15.05;31.08
65013;BME280;51715;39.432;-77.518;2022-12-24T03:52:02;98812.23;;;-15.11;30.35
65013;BME280;51715;39.432;-77.518;2022-12-24T03:54:30;98814.46;;;-14.75;30.46
65013;BME280;51715;39.432;-77.518;2022-12-24T03:56:58;98824.44;;;-14.83;31.11
65013;BME280;51715;39.432;-77.518;2022-12-24T05:03:59;98866.58;;;-15.11;29.45
65013;BME280;51715;39.432;-77.518;2022-12-24T05:06:29;98863.66;;;-15.16;28.85
65013;BME280;51715;39.432;-77.518;2022-12-24T05:08:59;98865.26;;;-15.21;30.57
65013;BME280;51715;39.432;-77.518;2022-12-24T05:11:27;98857.97;;;-14.69;29.41
65013;BME280;51715;39.432;-77.518;2022-12-24T05:13:56;98861.54;;;-15.49;29.41
65013;BME280;51715;39.432;-77.518;2022-12-24T05:16:25;98850.97;;;-15.48;30.90
65013;BME280;51715;39.432;-77.518;2022-12-24T05:18:54;98856.59;;;-14.91;30.44
65013;BME280;51715;39.432;-77.518;2022-12-24T05:21:24;98860.13;;;-15.12;30.26
65013;BME280;51715;39.432;-77.518;2022-12-24T05:23:53;98863.22;;;-15.07;29.84
65013;BME280;51715;39.432;-77.518;2022-12-24T05:26:28;98863.19;;;-14.78;29.88
65013;BME280;51715;39.432;-77.518;2022-12-24T05:28:58;98869.89;;;-14.11;29.69
65013;BME280;51715;39.432;-77.518;2022-12-24T05:31:29;98873.41;;;-13.80;29.88
65013;BME280;51715;39.432;-77.518;2022-12-24T05:33:57;98881.61;;;-14.32;29.04
65013;BME280;51715;39.432;-77.518;2022-12-24T05:36:26;98892.46;;;-15.45;29.31
65013;BME280;51715;39.432;-77.518;2022-12-24T05:38:54;98897.46;;;-14.77;29.89
65013;BME280;51715;39.432;-77.518;2022-12-24T05:41:23;98908.09;;;-14.50;29.65
65013;BME280;51715;39.432;-77.518;2022-12-24T05:43:52;98917.52;;;-14.59;29.96
65013;BME280;51715;39.432;-77.518;2022-12-24T05:46:21;98913.83;;;-14.88;29.43
65013;BME280;51715;39.432;-77.518;2022-12-24T05:48:51;98909.37;;;-14.61;29.70
65013;BME280;51715;39.432;-77.518;2022-12-24T05:51:21;98902.57;;;-13.37;28.81
65013;BME280;51715;39.432;-77.518;2022-12-24T05:53:50;98902.22;;;-12.97;27.84
65013;BME280;51715;39.432;-77.518;2022-12-24T05:56:20;98896.27;;;-13.54;28.12
65013;BME280;51715;39.432;-77.518;2022-12-24T05:58:49;98901.34;;;-13.51;27.78
65013;BME280;51715;39.432;-77.518;2022-12-24T06:01:20;98917.25;;;-13.83;27.73
65013;BME280;51715;39.432;-77.518;2022-12-24T06:03:48;98927.91;;;-13.94;28.58
65013;BME280;51715;39.432;-77.518;2022-12-24T06:06:18;98930.64;;;-13.40;27.30
65013;BME280;51715;39.432;-77.518;2022-12-24T06:08:48;98934.18;;;-13.78;28.37
65013;BME280;51715;39.432;-77.518;2022-12-24T06:11:21;98928.23;;;-12.89;27.97
65013;BME280;51715;39.432;-77.518;2022-12-24T06:13:51;98941.05;;;-12.80;28.17
65013;BME280;51715;39.432;-77.518;2022-12-24T06:16:20;98940.87;;;-13.03;27.31
65013;BME280;51715;39.432;-77.518;2022-12-24T06:18:49;98939.72;;;-12.71;26.85
65013;BME280;51715;39.432;-77.518;2022-12-24T06:21:18;98943.04;;;-15.49;29.72
65013;BME280;51715;39.432;-77.518;2022-12-24T06:23:47;98938.91;;;-14.28;28.32
65013;BME280;51715;39.432;-77.518;2022-12-24T06:26:17;98945.08;;;-13.70;27.77
65013;BME280;51715;39.432;-77.518;2022-12-24T06:28:47;98944.93;;;-12.88;27.09
65013;BME280;51715;39.432;-77.518;2022-12-24T06:31:18;98945.00;;;-13.72;27.64
65013;BME280;51715;39.432;-77.518;2022-12-24T06:33:46;98944.47;;;-13.16;27.75
65013;BME280;51715;39.432;-77.518;2022-12-24T06:36:17;98952.21;;;-13.99;27.24
65013;BME280;51715;39.432;-77.518;2022-12-24T06:38:47;98950.50;;;-13.52;28.50
65013;BME280;51715;39.432;-77.518;2022-12-24T06:41:16;98954.61;;;-13.57;27.16
65013;BME280;51715;39.432;-77.518;2022-12-24T06:43:44;98949.85;;;-14.28;27.55
65013;BME280;51715;39.432;-77.518;2022-12-24T06:46:13;98958.96;;;-13.31;27.22
65013;BME280;51715;39.432;-77.518;2022-12-24T06:48:42;98961.16;;;-14.00;27.58
65013;BME280;51715;39.432;-77.518;2022-12-24T06:51:11;98963.70;;;-14.26;27.74
65013;BME280;51715;39.432;-77.518;2022-12-24T06:53:41;98968.43;;;-14.58;28.51
65013;BME280;51715;39.432;-77.518;2022-12-24T06:56:11;98965.14;;;-14.16;28.36
65013;BME280;51715;39.432;-77.518;2022-12-24T06:58:40;98970.29;;;-14.44;29.21
65013;BME280;51715;39.432;-77.518;2022-12-24T07:01:10;98970.98;;;-15.65;29.96
65013;BME280;51715;39.432;-77.518;2022-12-24T07:03:39;98982.48;;;-15.03;29.26
65013;BME280;51715;39.432;-77.518;2022-12-24T07:06:14;98982.03;;;-15.20;29.33
65013;BME280;51715;39.432;-77.518;2022-12-24T07:08:43;98975.82;;;-15.31;29.69
65013;BME280;51715;39.432;-77.518;2022-12-24T07:11:12;98977.69;;;-15.29;29.38
65013;BME280;51715;39.432;-77.518;2022-12-24T07:13:40;98976.95;;;-15.62;29.88
65013;BME280;51715;39.432;-77.518;2022-12-24T07:16:08;98993.39;;;-15.56;29.52
65013;BME280;51715;39.432;-77.518;2022-12-24T07:18:37;98991.20;;;-15.33;29.83
65013;BME280;51715;39.432;-77.518;2022-12-24T07:21:05;99000.80;;;-15.71;30.26
65013;BME280;51715;39.432;-77.518;2022-12-24T07:23:33;99012.70;;;-15.13;29.80
65013;BME280;51715;39.432;-77.518;2022-12-24T07:26:02;99020.24;;;-14.76;29.24
65013;BME280;51715;39.432;-77.518;2022-12-24T07:28:31;99031.56;;;-14.29;28.67
65013;BME280;51715;39.432;-77.518;2022-12-24T07:30:59;99037.20;;;-14.17;28.60
65013;BME280;51715;39.432;-77.518;2022-12-24T07:33:27;99042.22;;;-13.82;28.14
65013;BME280;51715;39.432;-77.518;2022-12-24T07:35:59;99037.72;;;-13.57;27.57
65013;BME280;51715;39.432;-77.518;2022-12-24T07:38:28;99038.54;;;-14.88;27.26
65013;BME280;51715;39.432;-77.518;2022-12-24T07:41:11;99047.75;;;-14.92;28.68
65013;BME280;51715;39.432;-77.518;2022-12-24T07:43:40;99064.37;;;-15.14;29.31
65013;BME280;51715;39.432;-77.518;2022-12-24T07:46:09;99062.16;;;-14.86;29.24
65013;BME280;51715;39.432;-77.518;2022-12-24T07:48:37;99069.04;;;-14.53;28.77
65013;BME280;51715;39.432;-77.518;2022-12-24T07:51:05;99069.10;;;-15.04;29.19
65013;BME280;51715;39.432;-77.518;2022-12-24T07:53:33;99072.38;;;-14.73;29.53
65013;BME280;51715;39.432;-77.518;2022-12-24T07:56:02;99069.58;;;-14.53;29.11
65013;BME280;51715;39.432;-77.518;2022-12-24T07:58:31;99055.89;;;-15.06;28.53
65013;BME280;51715;39.432;-77.518;2022-12-24T08:00:59;99044.42;;;-14.93;29.08
65013;BME280;51715;39.432;-77.518;2022-12-24T08:03:27;99046.45;;;-15.14;29.17
65013;BME280;51715;39.432;-77.518;2022-12-24T08:05:56;99040.54;;;-14.35;29.58
65013;BME280;51715;39.432;-77.518;2022-12-24T08:08:24;99032.85;;;-14.63;29.05
65013;BME280;51715;39.432;-77.518;2022-12-24T08:10:52;99039.91;;;-15.18;29.67
65013;BME280;51715;39.432;-77.518;2022-12-24T08:13:21;99031.18;;;-14.75;29.44
65013;BME280;51715;39.432;-77.518;2022-12-24T08:15:50;99036.44;;;-15.95;30.60
65013;BME280;51715;39.432;-77.518;2022-12-24T08:18:19;99038.25;;;-15.40;30.54
65013;BME280;51715;39.432;-77.518;2022-12-24T08:20:47;99040.65;;;-15.49;30.06
65013;BME280;51715;39.432;-77.518;2022-12-24T08:23:15;99039.06;;;-15.62;30.19
65013;BME280;51715;39.432;-77.518;2022-12-24T08:25:45;99035.06;;;-14.88;29.49
65013;BME280;51715;39.432;-77.518;2022-12-24T08:28:16;99056.98;;;-14.81;29.12
65013;BME280;51715;39.432;-77.518;2022-12-24T08:30:49;99060.65;;;-14.73;29.06
65013;BME280;51715;39.432;-77.518;2022-12-24T08:33:17;99063.96;;;-14.59;28.73
65013;BME280;51715;39.432;-77.518;2022-12-24T08:35:48;99068.89;;;-14.63;29.17
65013;BME280;51715;39.432;-77.518;2022-12-24T08:38:16;99074.73;;;-14.70;29.44
65013;BME280;51715;39.432;-77.518;2022-12-24T08:40:45;99075.48;;;-15.15;28.96
65013;BME280;51715;39.432;-77.518;2022-12-24T08:43:13;99076.59;;;-16.18;29.99
65013;BME280;51715;39.432;-77.518;2022-12-24T08:45:42;99074.24;;;-15.22;29.77
65013;BME280;51715;39.432;-77.518;2022-12-24T08:48:10;99062.92;;;-15.06;29.13
65013;BME280;51715;39.432;-77.518;2022-12-24T08:50:40;99057.28;;;-14.42;29.07
65013;BME280;51715;39.432;-77.518;2022-12-24T08:53:09;99064.58;;;-14.04;28.42
65013;BME280;51715;39.432;-77.518;2022-12-24T08:55:37;99066.86;;;-14.93;28.38
65013;BME280;51715;39.432;-77.518;2022-12-24T08:58:06;99088.80;;;-15.36;29.18
65013;BME280;51715;39.432;-77.518;2022-12-24T09:00:35;99078.44;;;-15.29;29.15
65013;BME280;51715;39.432;-77.518;2022-12-24T09:03:04;99081.32;;;-14.78;28.90
65013;BME280;51715;39.432;-77.518;2022-12-24T09:05:32;99088.11;;;-14.86;28.25
65013;BME280;51715;39.432;-77.518;2022-12-24T09:08:01;99079.67;;;-14.45;28.82
65013;BME280;51715;39.432;-77.518;2022-12-24T09:10:28;99078.27;;;-13.76;28.13
65013;BME280;51715;39.432;-77.518;2022-12-24T09:12:58;99080.55;;;-14.35;28.02
65013;BME280;51715;39.432;-77.518;2022-12-24T09:15:26;99083.26;;;-14.00;28.86
65013;BME280;51715;39.432;-77.518;2022-12-24T13:31:47;99239.47;;;-15.41;29.09
65013;BME280;51715;39.432;-77.518;2022-12-24T13:34:38;99240.92;;;-15.60;28.79
65013;BME280;51715;39.432;-77.518;2022-12-24T13:37:31;99239.02;;;-14.49;27.13
65013;BME280;51715;39.432;-77.518;2022-12-24T13:40:22;99244.69;;;-15.89;28.26
65013;BME280;51715;39.432;-77.518;2022-12-24T13:43:13;99242.78;;;-14.83;27.26
65013;BME280;51715;39.432;-77.518;2022-12-24T13:45:53;99242.21;;;-14.28;26.85
65013;BME280;51715;39.432;-77.518;2022-12-24T13:48:34;99252.48;;;-13.43;27.12
65013;BME280;51715;39.432;-77.518;2022-12-24T13:51:25;99256.53;;;-14.22;27.11
65013;BME280;51715;39.432;-77.518;2022-12-24T13:54:08;99263.46;;;-13.41;26.83
65013;BME280;51715;39.432;-77.518;2022-12-24T13:56:48;99261.49;;;-12.92;26.62
65013;BME280;51715;39.432;-77.518;2022-12-24T13:59:33;99261.29;;;-13.22;27.13
65013;BME280;51715;39.432;-77.518;2022-12-24T14:02:23;99265.25;;;-13.54;27.00
65013;BME280;51715;39.432;-77.518;2022-12-24T14:05:04;99264.87;;;-13.38;28.08
65013;BME280;51715;39.432;-77.518;2022-12-24T14:07:50;99264.25;;;-12.96;26.89
65013;BME280;51715;39.432;-77.518;2022-12-24T14:10:31;99279.06;;;-13.82;27.50
65013;BME280;51715;39.432;-77.518;2022-12-24T14:14:08;99268.85;;;-13.53;28.19
65013;BME280;51715;39.432;-77.518;2022-12-24T14:16:50;99272.79;;;-12.73;27.26
65013;BME280;51715;39.432;-77.518;2022-12-24T14:19:32;99279.90;;;-12.78;26.80
65013;BME280;51715;39.432;-77.518;2022-12-24T14:22:34;99270.94;;;-12.90;27.09
65013;BME280;51715;39.432;-77.518;2022-12-24T14:25:18;99277.10;;;-13.67;28.06
65013;BME280;51715;39.432;-77.518;2022-12-24T14:28:05;99273.41;;;-13.81;27.29
65013;BME280;51715;39.432;-77.518;2022-12-24T14:30:49;99271.34;;;-13.15;27.29
65013;BME280;51715;39.432;-77.518;2022-12-24T14:33:36;99279.24;;;-12.53;28.07
65013;BME280;51715;39.432;-77.518;2022-12-24T14:36:17;99265.70;;;-12.03;26.42
65013;BME280;51715;39.432;-77.518;2022-12-24T14:38:56;99268.65;;;-11.97;26.50
65013;BME280;51715;39.432;-77.518;2022-12-24T14:41:43;99288.30;;;-12.82;27.89
65013;BME280;51715;39.432;-77.518;2022-12-24T14:44:27;99283.03;;;-11.95;26.38
65013;BME280;51715;39.432;-77.518;2022-12-24T14:47:20;99289.51;;;-11.00;25.99
65013;BME280;51715;39.432;-77.518;2022-12-24T14:50:18;99272.78;;;-11.62;26.87
65013;BME280;51715;39.432;-77.518;2022-12-24T14:53:10;99281.65;;;-11.70;25.95
65013;BME280;51715;39.432;-77.518;2022-12-24T14:55:50;99287.11;;;-10.48;26.02
65013;BME280;51715;39.432;-77.518;2022-12-24T14:58:31;99286.74;;;-10.12;24.55
65013;BME280;51715;39.432;-77.518;2022-12-24T15:01:24;99279.76;;;-10.30;25.18
65013;BME280;51715;39.432;-77.518;2022-12-24T15:04:14;99290.21;;;-10.27;25.22
65013;BME280;51715;39.432;-77.518;2022-12-24T15:06:54;99295.54;;;-9.31;24.51
65013;BME280;51715;39.432;-77.518;2022-12-24T15:09:36;99298.70;;;-9.87;24.67
65013;BME280;51715;39.432;-77.518;2022-12-24T15:12:16;99299.44;;;-10.57;23.77
65013;BME280;51715;39.432;-77.518;2022-12-24T15:14:55;99293.85;;;-10.09;23.70
65013;BME280;51715;39.432;-77.518;2022-12-24T15:17:33;99295.73;;;-10.20;23.55
65013;BME280;51715;39.432;-77.518;2022-12-24T15:20:13;99303.53;;;-9.25;24.18
65013;BME280;51715;39.432;-77.518;2022-12-24T15:22:57;99303.70;;;-8.33;23.09
65013;BME280;51715;39.432;-77.518;2022-12-24T15:25:36;99299.82;;;-9.37;22.80
65013;BME280;51715;39.432;-77.518;2022-12-24T15:28:21;99311.09;;;-9.14;23.33
65013;BME280;51715;39.432;-77.518;2022-12-24T15:31:10;99308.79;;;-10.04;23.87
65013;BME280;51715;39.432;-77.518;2022-12-24T15:33:50;99309.25;;;-10.05;23.14
65013;BME280;51715;39.432;-77.518;2022-12-24T15:36:31;99315.64;;;-10.65;24.38
65013;BME280;51715;39.432;-77.518;2022-12-24T15:39:13;99312.89;;;-9.50;24.19
65013;BME280;51715;39.432;-77.518;2022-12-24T15:41:54;99319.46;;;-9.24;23.83
65013;BME280;51715;39.432;-77.518;2022-12-24T15:44:34;99317.87;;;-10.59;24.32
65013;BME280;51715;39.432;-77.518;2022-12-24T15:47:19;99317.23;;;-11.09;26.02
65013;BME280;51715;39.432;-77.518;2022-12-24T15:50:00;99319.75;;;-9.86;23.88
65013;BME280;51715;39.432;-77.518;2022-12-24T15:52:43;99321.60;;;-9.85;23.94
65013;BME280;51715;39.432;-77.518;2022-12-24T15:55:32;99322.04;;;-10.56;24.57
65013;BME280;51715;39.432;-77.518;2022-12-24T15:58:21;99312.35;;;-10.69;25.26
65013;BME280;51715;39.432;-77.518;2022-12-24T16:01:26;99307.32;;;-10.57;24.74
65013;BME280;51715;39.432;-77.518;2022-12-24T16:04:10;99303.73;;;-10.92;26.34
65013;BME280;51715;39.432;-77.518;2022-12-24T16:06:59;99308.80;;;-9.99;24.73
65013;BME280;51715;39.432;-77.518;2022-12-24T16:09:55;99308.87;;;-9.64;24.23
65013;BME280;51715;39.432;-77.518;2022-12-24T16:12:34;99303.95;;;-9.29;24.18
65013;BME280;51715;39.432;-77.518;2022-12-24T16:15:19;99295.31;;;-10.24;24.07
65013;BME280;51715;39.432;-77.518;2022-12-24T16:17:57;99292.70;;;-9.17;23.88
65013;BME280;51715;39.432;-77.518;2022-12-24T16:20:36;99296.26;;;-9.61;24.07
65013;BME280;51715;39.432;-77.518;2022-12-24T16:23:21;99287.66;;;-9.61;23.99
65013;BME280;51715;39.432;-77.518;2022-12-24T16:26:02;99287.87;;;-9.09;23.32
65013;BME280;51715;39.432;-77.518;2022-12-24T16:28:55;99284.80;;;-8.53;23.36
65013;BME280;51715;39.432;-77.518;2022-12-24T16:31:56;99290.93;;;-8.24;23.39
65013;BME280;51715;39.432;-77.518;2022-12-24T16:34:44;99288.43;;;-7.97;22.72
65013;BME280;51715;39.432;-77.518;2022-12-24T16:37:22;99280.43;;;-8.62;22.72
65013;BME280;51715;39.432;-77.518;2022-12-24T16:40:01;99273.29;;;-7.56;23.00
65013;BME280;51715;39.432;-77.518;2022-12-24T16:42:39;99266.06;;;-8.10;23.12
65013;BME280;51715;39.432;-77.518;2022-12-24T16:45:18;99270.10;;;-8.48;22.93
65013;BME280;51715;39.432;-77.518;2022-12-24T16:47:56;99270.31;;;-8.07;23.95
65013;BME280;51715;39.432;-77.518;2022-12-24T16:50:54;99273.86;;;-7.49;22.80
65013;BME280;51715;39.432;-77.518;2022-12-24T16:53:54;99265.32;;;-7.99;23.11
65013;BME280;51715;39.432;-77.518;2022-12-24T16:56:54;99244.05;;;-7.26;22.14
65013;BME280;51715;39.432;-77.518;2022-12-24T16:59:55;99251.33;;;-6.53;21.73
65013;BME280;51715;39.432;-77.518;2022-12-24T17:02:54;99246.72;;;-7.62;23.68
65013;BME280;51715;39.432;-77.518;2022-12-24T17:05:53;99241.75;;;-6.85;21.54
65013;BME280;51715;39.432;-77.518;2022-12-24T17:08:54;99240.17;;;-7.69;23.25
65013;BME280;51715;39.432;-77.518;2022-12-24T17:11:55;99238.61;;;-8.34;23.80
65013;BME280;51715;39.432;-77.518;2022-12-24T17:14:54;99240.23;;;-7.95;22.99
65013;BME280;51715;39.432;-77.518;2022-12-24T17:17:54;99229.72;;;-7.36;22.18
65013;BME280;51715;39.432;-77.518;2022-12-24T17:21:02;99237.45;;;-7.18;23.16
65013;BME280;51715;39.432;-77.518;2022-12-24T17:23:54;99242.66;;;-7.67;23.02
65013;BME280;51715;39.432;-77.518;2022-12-24T17:27:09;99240.97;;;-6.79;21.94
65013;BME280;51715;39.432;-77.518;2022-12-24T17:29:55;99231.52;;;-7.77;21.67
65013;BME280;51715;39.432;-77.518;2022-12-24T17:32:55;99218.04;;;-7.61;23.24
65013;BME280;51715;39.432;-77.518;2022-12-24T17:35:54;99226.34;;;-8.08;23.95
65013;BME280;51715;39.432;-77.518;2022-12-24T17:38:55;99216.35;;;-8.57;23.83
65013;BME280;51715;39.432;-77.518;2022-12-24T17:42:30;99232.07;;;-7.89;23.84
65013;BME280;51715;39.432;-77.518;2022-12-24T17:45:09;99241.20;;;-7.70;23.48
65013;BME280;51715;39.432;-77.518;2022-12-24T17:48:07;99247.93;;;-7.64;22.80
65013;BME280;51715;39.432;-77.518;2022-12-24T17:50:54;99234.63;;;-7.14;22.58
65013;BME280;51715;39.432;-77.518;2022-12-24T17:53:55;99236.93;;;-6.64;21.92
65013;BME280;51715;39.432;-77.518;2022-12-24T17:56:54;99230.75;;;-7.65;22.88
65013;BME280;51715;39.432;-77.518;2022-12-24T17:59:54;99222.57;;;-6.76;22.17
65013;BME280;51715;39.432;-77.518;2022-12-24T18:02:54;99232.87;;;-7.27;22.97
65013;BME280;51715;39.432;-77.518;2022-12-24T18:05:55;99224.17;;;-7.04;23.01
65013;BME280;51715;39.432;-77.518;2022-12-24T18:08:55;99232.49;;;-7.22;22.94
65013;BME280;51715;39.432;-77.518;2022-12-24T18:11:55;99226.11;;;-7.19;22.96
65013;BME280;51715;39.432;-77.518;2022-12-24T18:14:54;99228.93;;;-7.66;23.22
65013;BME280;51715;39.432;-77.518;2022-12-24T18:17:55;99229.35;;;-8.31;24.21
65013;BME280;51715;39.432;-77.518;2022-12-24T18:20:55;99227.82;;;-7.73;23.23
65013;BME280;51715;39.432;-77.518;2022-12-24T18:23:56;99228.68;;;-8.22;23.73
65013;BME280;51715;39.432;-77.518;2022-12-24T18:26:35;99232.88;;;-8.12;24.08
65013;BME280;51715;39.432;-77.518;2022-12-24T18:29:14;99240.27;;;-8.68;24.11
65013;BME280;51715;39.432;-77.518;2022-12-24T18:31:52;99240.61;;;-8.15;24.34
65013;BME280;51715;39.432;-77.518;2022-12-24T18:34:30;99225.57;;;-8.39;23.82
65013;BME280;51715;39.432;-77.518;2022-12-24T18:37:08;99223.14;;;-8.89;25.15
65013;BME280;51715;39.432;-77.518;2022-12-24T18:39:48;99231.37;;;-8.77;24.09
65013;BME280;51715;39.432;-77.518;2022-12-24T18:42:26;99234.22;;;-8.23;24.34